sensor_id;sensor_type;location;lat;lon;timestamp;pressure;altitude;pressure_sealevel;temperature;humidity
11525;BME280;5819;49.648;8.330;2022-11-15T00:02:09;100068.88;;;9.14;100.00
11525;BME280;5819;49.648;8.330;2022-11-15T00:04:56;100066.19;;;9.16;100.00
11525;BME280;5819;49.648;8.330;2022-11-15T00:07:44;100061.53;;;9.24;100.00
11525;BME280;5819;49.648;8.330;2022-11-15T00:10:39;100059.53;;;9.30;100.00
11525;BME280;5819;49.648;8.330;2022-11-15T00:13:26;100052.78;;;9.26;100.00
11525;BME280;5819;49.648;8.330;2022-11-15T00:16:13;100059.00;;;9.22;100.00
11525;BME280;5819;49.648;8.330;2022-11-15T00:18:59;100061.72;;;9.19;100.00
11525;BME280;5819;49.648;8.330;2022-11-15T00:21:45;100063.69;;;9.14;100.00
11525;BME280;5819;49.648;8.330;2022-11-15T00:24:32;100056.72;;;9.15;100.00
11525;BME280;5819;49.648;8.330;2022-11-15T00:27:19;100061.84;;;9.16;100.00
11525;BME280;5819;49.648;8.330;2022-11-15T00:30:06;100050.63;;;9.16;100.00
11525;BME280;5819;49.648;8.330;2022-11-15T00:32:52;100053.94;;;9.19;100.00
11525;BME280;5819;49.648;8.330;2022-11-15T00:35:39;100052.97;;;9.22;100.00
11525;BME280;5819;49.648;8.330;2022-11-15T00:38:38;100050.94;;;9.28;100.00
11525;BME280;5819;49.648;8.330;2022-11-15T00:41:26;100044.72;;;9.32;100.00
11525;BME280;5819;49.648;8.330;2022-11-15T00:44:12;100049.78;;;9.35;100.00
11525;BME280;5819;49.648;8.330;2022-11-15T00:46:59;100045.38;;;9.37;100.00
11525;BME280;5819;49.648;8.330;2022-11-15T00:49:45;100038.34;;;9.39;100.00
11525;BME280;5819;49.648;8.330;2022-11-15T00:52:32;100040.00;;;9.42;100.00
11525;BME280;5819;49.648;8.330;2022-11-15T00:55:19;100035.75;;;9.39;100.00
11525;BME280;5819;49.648;8.330;2022-11-15T00:58:06;100037.50;;;9.39;100.00
11525;BME280;5819;49.648;8.330;2022-11-15T01:00:52;100035.91;;;9.36;100.00
11525;BME280;5819;49.648;8.330;2022-11-15T01:03:40;100033.31;;;9.36;100.00
11525;BME280;5819;49.648;8.330;2022-11-15T01:06:27;100033.31;;;9.36;100.00
11525;BME280;5819;49.648;8.330;2022-11-15T01:09:13;100029.88;;;9.36;100.00
11525;BME280;5819;49.648;8.330;2022-11-15T01:11:59;100022.97;;;9.35;100.00
11525;BME280;5819;49.648;8.330;2022-11-15T01:14:47;100016.88;;;9.36;100.00
11525;BME280;5819;49.648;8.330;2022-11-15T01:17:33;100013.38;;;9.37;100.00
11525;BME280;5819;49.648;8.330;2022-11-15T01:20:19;100027.41;;;9.33;100.00
11525;BME280;5819;49.648;8.330;2022-11-15T01:23:06;100018.78;;;9.32;100.00
11525;BME280;5819;49.648;8.330;2022-11-15T01:25:58;100024.00;;;9.31;100.00
11525;BME280;5819;49.648;8.330;2022-11-15T01:28:44;100020.72;;;9.27;100.00
11525;BME280;5819;49.648;8.330;2022-11-15T01:31:32;100018.97;;;9.28;100.00
11525;BME280;5819;49.648;8.330;2022-11-15T01:34:18;100015.53;;;9.27;100.00
11525;BME280;5819;49.648;8.330;2022-11-15T01:37:05;100021.56;;;9.28;100.00
11525;BME280;5819;49.648;8.330;2022-11-15T01:39:52;100020.72;;;9.27;100.00
11525;BME280;5819;49.648;8.330;2022-11-15T01:42:38;100018.97;;;9.28;100.00
11525;BME280;5819;49.648;8.330;2022-11-15T01:45:25;100014.69;;;9.27;100.00
11525;BME280;5819;49.648;8.330;2022-11-15T01:48:14;100006.06;;;9.26;100.00
11525;BME280;5819;49.648;8.330;2022-11-15T01:51:02;100008.72;;;9.25;100.00
11525;BME280;5819;49.648;8.330;2022-11-15T01:53:55;100005.31;;;9.23;100.00
11525;BME280;5819;49.648;8.330;2022-11-15T01:56:46;100010.66;;;9.20;100.00
11525;BME280;5819;49.648;8.330;2022-11-15T01:59:35;100007.22;;;9.19;100.00
11525;BME280;5819;49.648;8.330;2022-11-15T02:02:22;99995.22;;;9.17;100.00
11525;BME280;5819;49.648;8.330;2022-11-15T02:05:10;99999.44;;;9.19;100.00
11525;BME280;5819;49.648;8.330;2022-11-15T02:07:57;99989.91;;;9.20;100.00
11525;BME280;5819;49.648;8.330;2022-11-15T02:10:43;99979.66;;;9.17;100.00
11525;BME280;5819;49.648;8.330;2022-11-15T02:13:29;99985.84;;;9.14;100.00
11525;BME280;5819;49.648;8.330;2022-11-15T02:16:24;99981.72;;;9.09;100.00
11525;BME280;5819;49.648;8.330;2022-11-15T02:19:25;99976.53;;;9.09;100.00
11525;BME280;5819;49.648;8.330;2022-11-15T02:22:22;99969.53;;;9.11;100.00
11525;BME280;5819;49.648;8.330;2022-11-15T02:25:31;99974.66;;;9.12;100.00
11525;BME280;5819;49.648;8.330;2022-11-15T02:28:44;99971.06;;;9.15;100.00
11525;BME280;5819;49.648;8.330;2022-11-15T02:31:41;99964.94;;;9.17;100.00
11525;BME280;5819;49.648;8.330;2022-11-15T02:34:35;99958.91;;;9.17;100.00
11525;BME280;5819;49.648;8.330;2022-11-15T02:37:34;99956.50;;;9.12;100.00
11525;BME280;5819;49.648;8.330;2022-11-15T02:40:28;99948.06;;;9.07;100.00
11525;BME280;5819;49.648;8.330;2022-11-15T02:43:25;99950.88;;;9.03;100.00
11525;BME280;5819;49.648;8.330;2022-11-15T02:46:37;99949.38;;;8.97;100.00
11525;BME280;5819;49.648;8.330;2022-11-15T02:49:45;99943.53;;;8.92;100.00
11525;BME280;5819;49.648;8.330;2022-11-15T02:52:32;99946.75;;;8.77;100.00
11525;BME280;5819;49.648;8.330;2022-11-15T02:55:27;99947.22;;;8.66;100.00
11525;BME280;5819;49.648;8.330;2022-11-15T03:01:47;99944.69;;;8.65;100.00
11525;BME280;5819;49.648;8.330;2022-11-15T03:04:43;99939.00;;;8.77;100.00
11525;BME280;5819;49.648;8.330;2022-11-15T03:07:35;99936.72;;;8.89;100.00
11525;BME280;5819;49.648;8.330;2022-11-15T03:10:28;99932.97;;;8.97;100.00
11525;BME280;5819;49.648;8.330;2022-11-15T03:13:24;99929.19;;;9.04;100.00
11525;BME280;5819;49.648;8.330;2022-11-15T03:16:18;99936.72;;;9.10;100.00
11525;BME280;5819;49.648;8.330;2022-11-15T03:19:12;99942.63;;;9.13;100.00
11525;BME280;5819;49.648;8.330;2022-11-15T03:22:02;99931.63;;;9.27;100.00
11525;BME280;5819;49.648;8.330;2022-11-15T03:24:53;99925.66;;;9.25;100.00
11525;BME280;5819;49.648;8.330;2022-11-15T03:27:43;99934.03;;;9.31;100.00
11525;BME280;5819;49.648;8.330;2022-11-15T03:30:34;99933.41;;;9.26;100.00
11525;BME280;5819;49.648;8.330;2022-11-15T03:33:21;99928.22;;;9.26;100.00
11525;BME280;5819;49.648;8.330;2022-11-15T03:36:09;99931.72;;;9.25;100.00
11525;BME280;5819;49.648;8.330;2022-11-15T03:39:00;99927.63;;;9.20;100.00
11525;BME280;5819;49.648;8.330;2022-11-15T03:41:51;99927.72;;;9.18;100.00
11525;BME280;5819;49.648;8.330;2022-11-15T03:44:44;99927.56;;;9.21;100.00
11525;BME280;5819;49.648;8.330;2022-11-15T03:47:34;99927.47;;;9.23;100.00
11525;BME280;5819;49.648;8.330;2022-11-15T03:50:23;99930.81;;;9.26;100.00
11525;BME280;5819;49.648;8.330;2022-11-15T03:53:12;99931.38;;;9.33;100.00
11525;BME280;5819;49.648;8.330;2022-11-15T03:55:58;99935.56;;;9.35;100.00
11525;BME280;5819;49.648;8.330;2022-11-15T03:58:44;99933.13;;;9.32;100.00
11525;BME280;5819;49.648;8.330;2022-11-15T04:01:31;99935.78;;;9.31;100.00
11525;BME280;5819;49.648;8.330;2022-11-15T04:04:17;99943.31;;;9.37;100.00
11525;BME280;5819;49.648;8.330;2022-11-15T04:07:04;99940.66;;;9.38;100.00
11525;BME280;5819;49.648;8.330;2022-11-15T04:09:53;99943.25;;;9.38;100.00
11525;BME280;5819;49.648;8.330;2022-11-15T04:12:48;99951.84;;;9.39;100.00
11525;BME280;5819;49.648;8.330;2022-11-15T04:15:34;99943.81;;;9.45;100.00
11525;BME280;5819;49.648;8.330;2022-11-15T04:18:21;99952.34;;;9.47;100.00
11525;BME280;5819;49.648;8.330;2022-11-15T04:21:07;99942.81;;;9.48;100.00
11525;BME280;5819;49.648;8.330;2022-11-15T04:24:12;99944.50;;;9.49;100.00
11525;BME280;5819;49.648;8.330;2022-11-15T04:26:59;99954.84;;;9.50;100.00
11525;BME280;5819;49.648;8.330;2022-11-15T04:29:46;99954.66;;;9.55;100.00
11525;BME280;5819;49.648;8.330;2022-11-15T04:32:33;99946.00;;;9.54;100.00
11525;BME280;5819;49.648;8.330;2022-11-15T04:35:19;99941.78;;;9.52;100.00
11525;BME280;5819;49.648;8.330;2022-11-15T04:38:07;99940.09;;;9.51;100.00
11525;BME280;5819;49.648;8.330;2022-11-15T04:40:55;99929.72;;;9.51;100.00
11525;BME280;5819;49.648;8.330;2022-11-15T04:43:42;99921.94;;;9.51;100.00
11525;BME280;5819;49.648;8.330;2022-11-15T04:46:28;99922.91;;;9.48;100.00
11525;BME280;5819;49.648;8.330;2022-11-15T04:49:15;99925.84;;;9.40;100.00
11525;BME280;5819;49.648;8.330;2022-11-15T04:52:01;99923.38;;;9.37;100.00
11525;BME280;5819;49.648;8.330;2022-11-15T04:54:47;99924.28;;;9.36;100.00
11525;BME280;5819;49.648;8.330;2022-11-15T04:57:33;99919.94;;;9.37;100.00
11525;BME280;5819;49.648;8.330;2022-11-15T05:00:21;99923.44;;;9.36;100.00
11525;BME280;5819;49.648;8.330;2022-11-15T05:03:09;99916.44;;;9.38;100.00
11525;BME280;5819;49.648;8.330;2022-11-15T05:06:13;99911.25;;;9.38;100.00
11525;BME280;5819;49.648;8.330;2022-11-15T05:08:59;99900.78;;;9.39;100.00
11525;BME280;5819;49.648;8.330;2022-11-15T05:11:46;99904.44;;;9.35;100.00
11525;BME280;5819;49.648;8.330;2022-11-15T05:14:32;99891.44;;;9.35;100.00
11525;BME280;5819;49.648;8.330;2022-11-15T05:17:20;99888.94;;;9.34;100.00
11525;BME280;5819;49.648;8.330;2022-11-15T05:20:07;99886.34;;;9.34;100.00
11525;BME280;5819;49.648;8.330;2022-11-15T05:22:54;99882.13;;;9.31;100.00
11525;BME280;5819;49.648;8.330;2022-11-15T05:25:40;99876.88;;;9.33;100.00
11525;BME280;5819;49.648;8.330;2022-11-15T05:28:26;99879.53;;;9.31;100.00
11525;BME280;5819;49.648;8.330;2022-11-15T05:31:14;99883.06;;;9.30;100.00
11525;BME280;5819;49.648;8.330;2022-11-15T05:34:03;99877.84;;;9.30;100.00
11525;BME280;5819;49.648;8.330;2022-11-15T05:36:51;99886.59;;;9.28;100.00
11525;BME280;5819;49.648;8.330;2022-11-15T05:39:37;99890.19;;;9.25;100.00
11525;BME280;5819;49.648;8.330;2022-11-15T05:42:25;99892.00;;;9.23;100.00
11525;BME280;5819;49.648;8.330;2022-11-15T05:45:12;99893.69;;;9.24;100.00
11525;BME280;5819;49.648;8.330;2022-11-15T05:48:00;99897.88;;;9.27;100.00
11525;BME280;5819;49.648;8.330;2022-11-15T05:50:52;99897.88;;;9.27;100.00
11525;BME280;5819;49.648;8.330;2022-11-15T05:53:38;99885.75;;;9.27;100.00
11525;BME280;5819;49.648;8.330;2022-11-15T05:56:25;99883.88;;;9.31;100.00
11525;BME280;5819;49.648;8.330;2022-11-15T05:59:12;99883.06;;;9.30;100.00
11525;BME280;5819;49.648;8.330;2022-11-15T06:01:59;99874.47;;;9.28;100.00
11525;BME280;5819;49.648;8.330;2022-11-15T06:04:45;99876.50;;;9.22;100.00
11525;BME280;5819;49.648;8.330;2022-11-15T06:07:32;99878.47;;;9.17;100.00
11525;BME280;5819;49.648;8.330;2022-11-15T06:10:19;99876.75;;;9.16;100.00
11525;BME280;5819;49.648;8.330;2022-11-15T06:13:06;99885.94;;;9.04;100.00
11525;BME280;5819;49.648;8.330;2022-11-15T06:15:55;99887.16;;;8.96;100.00
11525;BME280;5819;49.648;8.330;2022-11-15T06:18:41;99884.72;;;8.92;100.00
11525;BME280;5819;49.648;8.330;2022-11-15T06:21:27;99886.56;;;8.90;100.00
11525;BME280;5819;49.648;8.330;2022-11-15T06:24:15;99876.75;;;8.97;100.00
11525;BME280;5819;49.648;8.330;2022-11-15T06:27:01;99880.69;;;9.06;100.00
11525;BME280;5819;49.648;8.330;2022-11-15T06:29:48;99872.56;;;9.13;100.00
11525;BME280;5819;49.648;8.330;2022-11-15T06:32:34;99872.03;;;9.25;100.00
11525;BME280;5819;49.648;8.330;2022-11-15T06:35:20;99873.66;;;9.47;100.00
11525;BME280;5819;49.648;8.330;2022-11-15T06:38:08;99878.00;;;9.46;100.00
11525;BME280;5819;49.648;8.330;2022-11-15T06:41:01;99887.91;;;9.38;100.00
11525;BME280;5819;49.648;8.330;2022-11-15T06:43:47;99898.03;;;9.24;100.00
11525;BME280;5819;49.648;8.330;2022-11-15T06:46:33;99894.94;;;9.16;100.00
11525;BME280;5819;49.648;8.330;2022-11-15T06:49:20;99888.91;;;9.15;100.00
11525;BME280;5819;49.648;8.330;2022-11-15T06:52:07;99888.97;;;9.14;100.00
11525;BME280;5819;49.648;8.330;2022-11-15T06:54:53;99897.66;;;9.13;100.00
11525;BME280;5819;49.648;8.330;2022-11-15T06:57:47;99894.09;;;9.15;100.00
11525;BME280;5819;49.648;8.330;2022-11-15T07:00:34;99891.38;;;9.18;100.00
11525;BME280;5819;49.648;8.330;2022-11-15T07:03:20;99893.81;;;9.21;100.00
11525;BME280;5819;49.648;8.330;2022-11-15T07:06:07;99889.34;;;9.25;100.00
11525;BME280;5819;49.648;8.330;2022-11-15T07:08:54;99890.09;;;9.27;100.00
11525;BME280;5819;49.648;8.330;2022-11-15T07:11:40;99881.50;;;9.26;100.00
11525;BME280;5819;49.648;8.330;2022-11-15T07:14:28;99882.47;;;9.24;100.00
11525;BME280;5819;49.648;8.330;2022-11-15T07:17:15;99883.25;;;9.26;100.00
11525;BME280;5819;49.648;8.330;2022-11-15T07:20:02;99878.75;;;9.29;100.00
11525;BME280;5819;49.648;8.330;2022-11-15T07:22:48;99882.06;;;9.33;100.00
11525;BME280;5819;49.648;8.330;2022-11-15T07:25:35;99890.69;;;9.33;100.00
11525;BME280;5819;49.648;8.330;2022-11-15T07:28:21;99895.47;;;9.43;100.00
11525;BME280;5819;49.648;8.330;2022-11-15T07:31:10;99893.09;;;9.38;100.00
11525;BME280;5819;49.648;8.330;2022-11-15T07:33:56;99895.59;;;9.39;100.00
11525;BME280;5819;49.648;8.330;2022-11-15T07:36:42;99888.44;;;9.45;100.00
11525;BME280;5819;49.648;8.330;2022-11-15T07:39:28;99900.94;;;9.55;100.00
11525;BME280;5819;49.648;8.330;2022-11-15T07:42:15;99903.47;;;9.57;100.00
11525;BME280;5819;49.648;8.330;2022-11-15T07:45:19;99902.47;;;9.59;100.00
11525;BME280;5819;49.648;8.330;2022-11-15T07:48:07;99899.56;;;9.67;100.00
11525;BME280;5819;49.648;8.330;2022-11-15T07:50:53;99895.13;;;9.69;100.00
11525;BME280;5819;49.648;8.330;2022-11-15T07:53:40;99897.56;;;9.72;100.00
11525;BME280;5819;49.648;8.330;2022-11-15T07:56:26;99898.41;;;9.72;100.00
11525;BME280;5819;49.648;8.330;2022-11-15T07:59:13;99898.34;;;9.74;100.00
11525;BME280;5819;49.648;8.330;2022-11-15T08:01:59;99911.34;;;9.74;100.00
11525;BME280;5819;49.648;8.330;2022-11-15T08:04:47;99902.72;;;9.73;100.00
11525;BME280;5819;49.648;8.330;2022-11-15T08:07:33;99908.81;;;9.72;100.00
11525;BME280;5819;49.648;8.330;2022-11-15T08:10:19;99904.59;;;9.70;100.00
11525;BME280;5819;49.648;8.330;2022-11-15T08:13:07;99906.34;;;9.69;100.00
11525;BME280;5819;49.648;8.330;2022-11-15T08:15:58;99907.06;;;9.73;100.00
11525;BME280;5819;49.648;8.330;2022-11-15T08:18:45;99908.75;;;9.74;100.00
11525;BME280;5819;49.648;8.330;2022-11-15T08:21:32;99899.97;;;9.76;100.00
11525;BME280;5819;49.648;8.330;2022-11-15T08:24:19;99892.84;;;9.80;100.00
11525;BME280;5819;49.648;8.330;2022-11-15T08:27:06;99892.81;;;9.81;100.00
11525;BME280;5819;49.648;8.330;2022-11-15T08:30:00;99888.38;;;9.83;100.00
11525;BME280;5819;49.648;8.330;2022-11-15T08:32:46;99886.56;;;9.85;100.00
11525;BME280;5819;49.648;8.330;2022-11-15T08:35:32;99886.41;;;9.88;100.00
11525;BME280;5819;49.648;8.330;2022-11-15T08:38:20;99886.03;;;9.96;100.00
11525;BME280;5819;49.648;8.330;2022-11-15T08:41:12;99892.91;;;9.97;100.00
11525;BME280;5819;49.648;8.330;2022-11-15T08:43:59;99883.22;;;10.01;100.00
11525;BME280;5819;49.648;8.330;2022-11-15T08:46:46;99879.63;;;10.03;100.00
11525;BME280;5819;49.648;8.330;2022-11-15T08:49:32;99869.81;;;10.10;100.00
11525;BME280;5819;49.648;8.330;2022-11-15T08:52:19;99872.31;;;10.11;100.00
11525;BME280;5819;49.648;8.330;2022-11-15T08:55:08;99873.16;;;10.12;100.00
11525;BME280;5819;49.648;8.330;2022-11-15T08:57:56;99869.81;;;10.10;100.00
11525;BME280;5819;49.648;8.330;2022-11-15T09:00:43;99865.44;;;10.10;100.00
11525;BME280;5819;49.648;8.330;2022-11-15T09:03:29;99873.31;;;10.09;100.00
11525;BME280;5819;49.648;8.330;2022-11-15T09:06:16;99873.09;;;10.13;100.00
11525;BME280;5819;49.648;8.330;2022-11-15T09:09:03;99872.06;;;10.17;100.00
11525;BME280;5819;49.648;8.330;2022-11-15T09:11:51;99860.44;;;10.24;100.00
11525;BME280;5819;49.648;8.330;2022-11-15T09:14:43;99867.25;;;10.27;100.00
11525;BME280;5819;49.648;8.330;2022-11-15T09:17:29;99862.44;;;10.37;100.00
11525;BME280;5819;49.648;8.330;2022-11-15T09:20:16;99861.09;;;10.47;100.00
11525;BME280;5819;49.648;8.330;2022-11-15T09:23:03;99854.56;;;10.55;100.00
11525;BME280;5819;49.648;8.330;2022-11-15T09:25:50;99856.78;;;10.63;100.00
11525;BME280;5819;49.648;8.330;2022-11-15T09:28:38;99862.81;;;10.63;100.00
11525;BME280;5819;49.648;8.330;2022-11-15T09:31:27;99856.84;;;10.61;100.00
11525;BME280;5819;49.648;8.330;2022-11-15T09:34:14;99856.94;;;10.60;100.00
11525;BME280;5819;49.648;8.330;2022-11-15T09:37:01;99861.38;;;10.58;100.00
11525;BME280;5819;49.648;8.330;2022-11-15T09:39:47;99863.19;;;10.56;100.00
11525;BME280;5819;49.648;8.330;2022-11-15T09:42:47;99862.97;;;10.60;100.00
11525;BME280;5819;49.648;8.330;2022-11-15T09:45:41;99859.63;;;10.58;100.00
11525;BME280;5819;49.648;8.330;2022-11-15T09:48:51;99866.47;;;10.59;100.00
11525;BME280;5819;49.648;8.330;2022-11-15T09:51:40;99862.44;;;10.54;100.00
11525;BME280;5819;49.648;8.330;2022-11-15T09:54:23;99861.59;;;10.53;100.00
11525;BME280;5819;49.648;8.330;2022-11-15T09:57:14;99846.00;;;10.53;100.00
11525;BME280;5819;49.648;8.330;2022-11-15T09:59:50;99840.88;;;10.52;100.00
11525;BME280;5819;49.648;8.330;2022-11-15T10:02:30;99844.31;;;10.52;100.00
11525;BME280;5819;49.648;8.330;2022-11-15T10:05:03;99835.66;;;10.52;100.00
11525;BME280;5819;49.648;8.330;2022-11-15T10:07:34;99829.72;;;10.50;100.00
11525;BME280;5819;49.648;8.330;2022-11-15T10:10:13;99831.47;;;10.49;100.00
11525;BME280;5819;49.648;8.330;2022-11-15T10:12:45;99830.69;;;10.47;100.00
11525;BME280;5819;49.648;8.330;2022-11-15T10:15:17;99814.41;;;10.44;100.00
11525;BME280;5819;49.648;8.330;2022-11-15T10:18:17;99812.88;;;10.40;100.00
11525;BME280;5819;49.648;8.330;2022-11-15T10:20:48;99813.81;;;10.39;100.00
11525;BME280;5819;49.648;8.330;2022-11-15T10:23:18;99814.88;;;10.35;100.00
11525;BME280;5819;49.648;8.330;2022-11-15T10:25:50;99812.28;;;10.35;100.00
11525;BME280;5819;49.648;8.330;2022-11-15T10:28:22;99801.72;;;10.38;100.00
11525;BME280;5819;49.648;8.330;2022-11-15T10:30:53;99788.78;;;10.36;100.00
11525;BME280;5819;49.648;8.330;2022-11-15T10:33:33;99784.38;;;10.38;100.00
11525;BME280;5819;49.648;8.330;2022-11-15T10:36:30;99785.44;;;10.34;100.00
11525;BME280;5819;49.648;8.330;2022-11-15T10:38:58;99783.59;;;10.36;100.00
11525;BME280;5819;49.648;8.330;2022-11-15T10:41:37;99775.63;;;10.39;100.00
11525;BME280;5819;49.648;8.330;2022-11-15T10:44:21;99772.06;;;10.42;100.00
11525;BME280;5819;49.648;8.330;2022-11-15T10:49:55;99770.13;;;10.45;100.00
11525;BME280;5819;49.648;8.330;2022-11-15T10:52:24;99765.56;;;10.50;100.00
11525;BME280;5819;49.648;8.330;2022-11-15T10:54:55;99748.88;;;10.54;100.00
11525;BME280;5819;49.648;8.330;2022-11-15T10:57:26;99741.00;;;10.71;100.00
11525;BME280;5819;49.648;8.330;2022-11-15T10:59:57;99736.13;;;10.65;100.00
11525;BME280;5819;49.648;8.330;2022-11-15T11:02:29;99724.72;;;10.68;100.00
11525;BME280;5819;49.648;8.330;2022-11-15T11:05:00;99722.66;;;10.74;100.00
11525;BME280;5819;49.648;8.330;2022-11-15T11:07:30;99728.69;;;10.75;100.00
11525;BME280;5819;49.648;8.330;2022-11-15T11:10:01;99728.28;;;10.83;100.00
11525;BME280;5819;49.648;8.330;2022-11-15T11:12:48;99729.03;;;10.85;100.00
11525;BME280;5819;49.648;8.330;2022-11-15T11:15:17;99726.38;;;10.86;100.00
11525;BME280;5819;49.648;8.330;2022-11-15T11:17:54;99714.03;;;10.90;100.00
11525;BME280;5819;49.648;8.330;2022-11-15T11:20:32;99711.91;;;10.96;100.00
11525;BME280;5819;49.648;8.330;2022-11-15T11:23:19;99713.53;;;10.99;100.00
11525;BME280;5819;49.648;8.330;2022-11-15T11:26:09;99712.28;;;11.06;100.00
11525;BME280;5819;49.648;8.330;2022-11-15T11:28:45;99704.03;;;11.13;100.00
11525;BME280;5819;49.648;8.330;2022-11-15T11:31:27;99698.47;;;11.19;100.00
11525;BME280;5819;49.648;8.330;2022-11-15T11:34:04;99700.69;;;11.27;100.00
11525;BME280;5819;49.648;8.330;2022-11-15T11:36:40;99691.50;;;11.36;100.00
11525;BME280;5819;49.648;8.330;2022-11-15T11:39:21;99697.47;;;11.38;100.00
11525;BME280;5819;49.648;8.330;2022-11-15T11:41:59;99698.38;;;11.37;100.00
11525;BME280;5819;49.648;8.330;2022-11-15T11:44:34;99697.53;;;11.36;100.00
11525;BME280;5819;49.648;8.330;2022-11-15T11:47:09;99699.91;;;11.41;100.00
11525;BME280;5819;49.648;8.330;2022-11-15T11:49:42;99690.31;;;11.41;100.00
11525;BME280;5819;49.648;8.330;2022-11-15T11:52:17;99688.56;;;11.42;100.00
11525;BME280;5819;49.648;8.330;2022-11-15T11:54:53;99677.97;;;11.45;100.00
11525;BME280;5819;49.648;8.330;2022-11-15T11:57:32;99675.19;;;11.48;100.00
11525;BME280;5819;49.648;8.330;2022-11-15T12:00:04;99668.22;;;11.48;100.00
11525;BME280;5819;49.648;8.330;2022-11-15T12:02:39;99660.91;;;11.55;100.00
11525;BME280;5819;49.648;8.330;2022-11-15T12:05:13;99656.44;;;11.57;100.00
11525;BME280;5819;49.648;8.330;2022-11-15T12:07:46;99644.31;;;11.71;100.00
11525;BME280;5819;49.648;8.330;2022-11-15T12:10:20;99649.09;;;11.79;100.00
11525;BME280;5819;49.648;8.330;2022-11-15T12:12:55;99639.13;;;11.86;100.00
11525;BME280;5819;49.648;8.330;2022-11-15T12:15:27;99634.97;;;11.83;100.00
11525;BME280;5819;49.648;8.330;2022-11-15T12:18:00;99641.94;;;11.83;100.00
11525;BME280;5819;49.648;8.330;2022-11-15T12:20:31;99639.78;;;11.89;100.00
11525;BME280;5819;49.648;8.330;2022-11-15T12:23:05;99638.69;;;11.93;100.00
11525;BME280;5819;49.648;8.330;2022-11-15T12:25:43;99632.94;;;12.02;100.00
11525;BME280;5819;49.648;8.330;2022-11-15T12:28:16;99631.81;;;12.06;100.00
11525;BME280;5819;49.648;8.330;2022-11-15T12:30:51;99625.38;;;12.12;100.00
11525;BME280;5819;49.648;8.330;2022-11-15T12:33:32;99616.56;;;12.14;100.00
11525;BME280;5819;49.648;8.330;2022-11-15T12:36:03;99614.31;;;12.23;100.00
11525;BME280;5819;49.648;8.330;2022-11-15T12:38:53;99620.81;;;12.30;100.00
11525;BME280;5819;49.648;8.330;2022-11-15T12:41:22;99617.94;;;12.34;100.00
11525;BME280;5819;49.648;8.330;2022-11-15T12:43:51;99617.75;;;12.37;100.00
11525;BME280;5819;49.648;8.330;2022-11-15T12:49:10;99618.50;;;12.39;100.00
11525;BME280;5819;49.648;8.330;2022-11-15T12:52:04;99609.00;;;12.38;100.00
11525;BME280;5819;49.648;8.330;2022-11-15T12:54:54;99600.63;;;12.47;100.00
11525;BME280;5819;49.648;8.330;2022-11-15T12:57:30;99598.66;;;12.51;100.00
11525;BME280;5819;49.648;8.330;2022-11-15T13:00:00;99598.88;;;12.60;100.00
11525;BME280;5819;49.648;8.330;2022-11-15T13:02:31;99593.31;;;12.66;100.00
11525;BME280;5819;49.648;8.330;2022-11-15T13:08:02;99586.41;;;12.65;100.00
11525;BME280;5819;49.648;8.330;2022-11-15T13:10:33;99586.66;;;12.75;100.00
11525;BME280;5819;49.648;8.330;2022-11-15T13:13:02;99583.06;;;12.90;100.00
11525;BME280;5819;49.648;8.330;2022-11-15T13:15:44;99582.31;;;12.88;100.00
11525;BME280;5819;49.648;8.330;2022-11-15T13:18:29;99579.00;;;12.86;100.00
11525;BME280;5819;49.648;8.330;2022-11-15T13:20:59;99575.88;;;12.94;100.00
11525;BME280;5819;49.648;8.330;2022-11-15T13:23:28;99560.50;;;13.16;100.00
11525;BME280;5819;49.648;8.330;2022-11-15T13:26:13;99551.03;;;13.01;100.00
11525;BME280;5819;49.648;8.330;2022-11-15T13:28:44;99545.19;;;12.97;100.00
11525;BME280;5819;49.648;8.330;2022-11-15T13:31:21;99547.81;;;12.97;100.00
11525;BME280;5819;49.648;8.330;2022-11-15T13:33:51;99536.75;;;13.06;100.00
11525;BME280;5819;49.648;8.330;2022-11-15T13:36:21;99546.38;;;13.06;100.00
11525;BME280;5819;49.648;8.330;2022-11-15T13:38:58;99530.44;;;13.10;100.00
11525;BME280;5819;49.648;8.330;2022-11-15T13:41:29;99531.75;;;13.03;100.00
11525;BME280;5819;49.648;8.330;2022-11-15T13:43:58;99533.41;;;13.04;100.00
11525;BME280;5819;49.648;8.330;2022-11-15T13:46:28;99528.66;;;13.11;100.00
11525;BME280;5819;49.648;8.330;2022-11-15T13:48:57;99530.44;;;12.96;100.00
11525;BME280;5819;49.648;8.330;2022-11-15T13:51:37;99526.53;;;13.03;100.00
11525;BME280;5819;49.648;8.330;2022-11-15T13:54:16;99523.25;;;13.00;100.00
11525;BME280;5819;49.648;8.330;2022-11-15T13:56:51;99521.06;;;12.94;100.00
11525;BME280;5819;49.648;8.330;2022-11-15T13:59:25;99516.88;;;12.91;100.00
11525;BME280;5819;49.648;8.330;2022-11-15T14:01:54;99508.94;;;12.93;100.00
11525;BME280;5819;49.648;8.330;2022-11-15T14:04:24;99501.47;;;12.74;100.00
11525;BME280;5819;49.648;8.330;2022-11-15T14:06:55;99499.25;;;12.68;100.00
11525;BME280;5819;49.648;8.330;2022-11-15T14:09:30;99496.16;;;12.76;100.00
11525;BME280;5819;49.648;8.330;2022-11-15T14:12:02;99492.66;;;12.89;100.00
11525;BME280;5819;49.648;8.330;2022-11-15T14:14:30;99485.69;;;13.02;100.00
11525;BME280;5819;49.648;8.330;2022-11-15T14:16:59;99490.63;;;12.80;100.00
11525;BME280;5819;49.648;8.330;2022-11-15T14:19:36;99480.69;;;12.73;100.00
11525;BME280;5819;49.648;8.330;2022-11-15T14:22:15;99483.41;;;12.71;100.00
11525;BME280;5819;49.648;8.330;2022-11-15T14:24:45;99481.41;;;12.62;100.00
11525;BME280;5819;49.648;8.330;2022-11-15T14:27:23;99465.81;;;12.60;100.00
11525;BME280;5819;49.648;8.330;2022-11-15T14:29:51;99471.34;;;12.56;100.00
11525;BME280;5819;49.648;8.330;2022-11-15T14:32:21;99456.22;;;12.61;100.00
11525;BME280;5819;49.648;8.330;2022-11-15T14:34:53;99456.78;;;12.66;100.00
11525;BME280;5819;49.648;8.330;2022-11-15T14:37:23;99451.25;;;12.71;100.00
11525;BME280;5819;49.648;8.330;2022-11-15T14:39:52;99449.03;;;12.64;100.00
11525;BME280;5819;49.648;8.330;2022-11-15T14:42:22;99440.38;;;12.51;100.00
11525;BME280;5819;49.648;8.330;2022-11-15T14:44:51;99445.13;;;12.45;100.00
11525;BME280;5819;49.648;8.330;2022-11-15T14:47:19;99436.44;;;12.44;100.00